Hovedside
METAR-TAF:

METAR-TAF

Lufthavner :

Utti lufthavn

Utti, Finland

breddegrad: 60-54N, lengdegrad: 026-56E, høyde over havet: 100 m

Gjeldene værobservasjon

Denne rapporten ble laget for 16 minutter siden, klokken 14:50 UTC
Vind 6 kt fra Nordvest
Temperatur -17°C
Luftfuktighet 77%
Trykk 1014 hPa
Sikt 10 km eller mer
Brutte skyer i en høyde av 4600 ft

METAR: EFUT 211450Z 31006KT 9999 BKN046 M17/M20 Q1014

Tid: 17:06 (15:06 UTC)

Varsel

Denne rapporten ble laget for 36 minutter siden, klokken 14:30 UTC
Varsel gyldig fra 21. klokken 15 UTC til 21. klokken 21 UTC
Vind 7 kt fra Vest-nordvest
Sikt 10 km eller mer
ingen skyer under 1500 m og ingen bygeskyer

TAF: EFUT 211430Z 2115/2121 30007KT CAVOK

Værobservasjoner og værvarsel for over 4000 flyplasser (METAR- og TAF-rapporter).

Tilgjengelige stasjoner er representert av de røde og gule prikkene på kartet.

Hold musepekeren over prikken for å se navnet på stasjonen.

Klikk så for å se værobservasjoner og -varsler.

For å forandre kartet kan du klikke på den grønne knappen med svart kryss for å zoome inn, på den grønne knappen med strek for å zoome ut, eller på de grønne pilene for å se tilstøtende kart.


METAR-TAF: